createdAt,value
2022-09-23T00:02:11.093Z,12.68
2022-09-23T00:04:38.339Z,12.87
2022-09-23T00:07:05.591Z,13.12
2022-09-23T00:09:32.639Z,13.08
2022-09-23T00:12:00.215Z,12.54
2022-09-23T00:14:47.354Z,12.86
2022-09-23T00:17:48.350Z,12.62
2022-09-23T00:20:49.372Z,13.07
2022-09-23T00:23:30.044Z,12.77
2022-09-23T00:25:58.013Z,13.02
2022-09-23T00:28:25.679Z,12.64
2022-09-23T00:30:52.885Z,12.71
2022-09-23T00:33:20.055Z,12.22
2022-09-23T00:35:47.832Z,12.65
2022-09-23T00:38:14.853Z,12.32
2022-09-23T00:40:46.297Z,12.85
2022-09-23T00:43:14.999Z,12.84
2022-09-23T00:46:04.487Z,12.23
2022-09-23T00:48:45.850Z,12.96
2022-09-23T00:51:18.315Z,12.44
2022-09-23T00:53:50.253Z,13.04
2022-09-23T00:56:19.977Z,12.84
2022-09-23T00:59:07.379Z,12.16
2022-09-23T01:01:50.056Z,12.54
2022-09-23T01:04:17.174Z,12.39
2022-09-23T01:06:44.454Z,12.38
2022-09-23T01:09:11.462Z,12.55
2022-09-23T01:12:07.790Z,12.20
2022-09-23T01:15:14.380Z,12.70
2022-09-23T01:18:55.442Z,12.77
2022-09-23T01:21:56.460Z,12.71
2022-09-23T01:24:46.383Z,12.60
2022-09-23T01:27:28.512Z,12.82
2022-09-23T01:30:18.887Z,12.66
2022-09-23T01:33:04.735Z,12.55
2022-09-23T01:35:48.199Z,12.53
2022-09-23T01:38:26.967Z,11.87
2022-09-23T01:40:54.092Z,12.45
2022-09-23T01:43:31.131Z,12.18
2022-09-23T01:46:00.481Z,12.61
2022-09-23T01:48:40.432Z,12.09
2022-09-23T01:51:14.771Z,11.98
2022-09-23T01:53:52.386Z,12.39
2022-09-23T01:56:39.009Z,11.66
2022-09-23T01:59:42.461Z,11.78
2022-09-23T02:02:29.409Z,11.83
2022-09-23T02:05:09.688Z,12.16
2022-09-23T02:07:41.579Z,12.01
2022-09-23T02:10:17.720Z,11.45
2022-09-23T02:13:08.447Z,11.37
2022-09-23T02:16:12.454Z,11.55
2022-09-23T02:19:00.217Z,11.37
2022-09-23T02:21:34.038Z,11.44
2022-09-23T02:24:09.164Z,11.24
2022-09-23T02:27:05.007Z,11.34
2022-09-23T02:29:52.520Z,11.78
2022-09-23T02:33:29.488Z,11.48
2022-09-23T02:36:20.653Z,11.23
2022-09-23T02:38:57.607Z,10.82
2022-09-23T02:41:50.141Z,11.84
2022-09-23T02:44:19.740Z,12.12
2022-09-23T02:46:47.120Z,11.65
2022-09-23T02:49:17.671Z,12.31
2022-09-23T02:51:45.579Z,11.80
2022-09-23T02:54:26.227Z,11.60
2022-09-23T02:56:54.198Z,11.51
2022-09-23T02:59:41.487Z,11.41
2022-09-23T03:02:51.424Z,12.00
2022-09-23T03:05:37.664Z,11.69
2022-09-23T03:08:26.440Z,11.64
2022-09-23T03:11:01.987Z,11.64
2022-09-23T03:13:59.425Z,11.60
2022-09-23T03:16:47.762Z,11.41
2022-09-23T03:19:42.333Z,11.18
2022-09-23T03:22:27.121Z,11.14
2022-09-23T03:24:58.772Z,10.86
2022-09-23T03:27:30.287Z,11.19
2022-09-23T03:29:57.877Z,10.78
2022-09-23T03:32:28.055Z,10.82
2022-09-23T03:35:18.435Z,10.77
2022-09-23T03:38:27.435Z,10.68
2022-09-23T03:41:11.270Z,10.55
2022-09-23T03:43:39.450Z,10.67
2022-09-23T03:46:08.239Z,10.86
2022-09-23T03:48:35.362Z,10.74
2022-09-23T03:51:20.330Z,10.96
2022-09-23T03:53:48.223Z,10.53
2022-09-23T03:56:15.265Z,10.74
2022-09-23T03:59:02.450Z,10.62
2022-09-23T04:01:43.640Z,11.01
2022-09-23T04:04:10.759Z,10.87
2022-09-23T04:06:37.634Z,10.87
2022-09-23T04:09:04.638Z,10.52
2022-09-23T04:11:31.621Z,11.12
2022-09-23T04:14:18.440Z,11.16
2022-09-23T04:17:19.480Z,10.94
2022-09-23T04:19:59.930Z,10.76
2022-09-23T04:22:26.808Z,10.62
2022-09-23T04:24:53.647Z,10.78
2022-09-23T04:27:20.655Z,10.48
2022-09-23T04:29:47.468Z,10.49
2022-09-23T04:32:14.368Z,10.42
2022-09-23T04:34:41.183Z,10.67
2022-09-23T04:37:08.120Z,10.55
2022-09-23T04:39:35.007Z,10.22
2022-09-23T04:42:01.967Z,10.06
2022-09-23T04:44:49.482Z,10.24
2022-09-23T04:47:50.460Z,10.02
2022-09-23T04:50:34.005Z,10.12
2022-09-23T04:53:01.873Z,10.08
2022-09-23T04:55:29.353Z,9.78
2022-09-23T04:58:16.464Z,9.93
2022-09-23T05:01:36.730Z,9.94
2022-09-23T05:04:38.514Z,9.85
2022-09-23T05:07:37.531Z,9.72
2022-09-23T05:10:18.408Z,9.97
2022-09-23T05:12:45.247Z,10.19
2022-09-23T05:15:16.224Z,10.27
2022-09-23T05:17:43.451Z,10.15
2022-09-23T05:20:11.418Z,10.30
2022-09-23T05:22:38.332Z,10.10
2022-09-23T05:25:25.468Z,10.62
2022-09-23T05:28:06.519Z,10.60
2022-09-23T05:30:33.881Z,10.32
2022-09-23T05:33:01.368Z,10.67
2022-09-23T05:35:28.388Z,10.30
2022-09-23T05:37:55.220Z,11.17
2022-09-23T05:40:22.123Z,11.14
2022-09-23T05:42:50.109Z,10.67
2022-09-23T05:45:17.749Z,10.85
2022-09-23T05:47:44.647Z,10.72
2022-09-23T05:50:31.488Z,10.68
2022-09-23T05:53:32.517Z,10.14
2022-09-23T05:56:14.230Z,10.14
2022-09-23T05:59:05.654Z,10.67
2022-09-23T06:01:46.390Z,10.70
2022-09-23T06:04:14.373Z,9.91
2022-09-23T06:07:03.594Z,10.54
2022-09-23T06:09:44.143Z,10.81
2022-09-23T06:12:11.300Z,11.41
2022-09-23T06:14:38.455Z,10.82
2022-09-23T06:17:05.695Z,11.97
2022-09-23T06:19:32.553Z,12.73
2022-09-23T06:21:59.600Z,12.73
2022-09-23T06:24:31.070Z,13.23
2022-09-23T06:26:58.585Z,13.15
2022-09-23T06:29:25.401Z,13.47
2022-09-23T06:32:12.524Z,13.66
2022-09-23T06:34:53.280Z,14.86
2022-09-23T06:37:20.954Z,15.39
2022-09-23T06:39:48.725Z,15.23
2022-09-23T06:42:16.738Z,15.93
2022-09-23T06:45:03.598Z,15.50
2022-09-23T06:47:44.791Z,15.81
2022-09-23T06:50:12.692Z,16.07
2022-09-23T06:52:39.604Z,17.10
2022-09-23T06:55:07.697Z,15.82
2022-09-23T06:57:54.533Z,15.66
2022-09-23T07:00:55.563Z,16.18
2022-09-23T07:03:57.552Z,15.90
2022-09-23T07:06:58.550Z,16.45
2022-09-23T07:09:39.335Z,16.52
2022-09-23T07:12:06.446Z,15.92
2022-09-23T07:14:33.330Z,16.57
2022-09-23T07:17:00.323Z,17.03
2022-09-23T07:19:27.217Z,16.66
2022-09-23T07:21:54.230Z,16.97
2022-09-23T07:24:41.578Z,17.20
2022-09-23T07:27:42.542Z,17.84
2022-09-23T07:30:25.393Z,18.81
2022-09-23T07:33:26.929Z,18.29
2022-09-23T07:36:34.570Z,18.05
2022-09-23T07:39:15.231Z,18.45
2022-09-23T07:41:44.666Z,17.90
2022-09-23T07:44:11.945Z,17.69
2022-09-23T07:46:38.931Z,18.02
2022-09-23T07:49:06.520Z,17.40
2022-09-23T07:51:38.791Z,18.34
2022-09-23T07:54:10.081Z,18.72
2022-09-23T07:56:38.000Z,18.28
2022-09-23T07:59:27.587Z,18.08
2022-09-23T08:02:28.645Z,18.82
2022-09-23T08:05:09.438Z,18.90
2022-09-23T08:07:56.585Z,19.52
2022-09-23T08:10:57.595Z,19.22
2022-09-23T08:13:38.246Z,19.34
2022-09-23T08:16:05.618Z,19.65
2022-09-23T08:18:33.360Z,19.86
2022-09-23T08:21:00.284Z,20.03
2022-09-23T08:23:27.879Z,19.86
2022-09-23T08:26:00.074Z,19.77
2022-09-23T08:28:27.987Z,20.10
2022-09-23T08:30:55.261Z,20.43
2022-09-23T08:33:23.715Z,20.28
2022-09-23T08:35:51.534Z,19.73
2022-09-23T08:38:38.623Z,19.87
2022-09-23T08:41:34.762Z,19.84
2022-09-23T08:44:20.387Z,20.07
2022-09-23T08:46:56.972Z,20.10
2022-09-23T08:49:31.793Z,20.46
2022-09-23T08:52:06.861Z,19.78
2022-09-23T08:54:34.249Z,18.86
2022-09-23T08:57:04.089Z,19.41
2022-09-23T08:59:57.620Z,20.51
2022-09-23T09:02:38.328Z,20.02
2022-09-23T09:05:10.449Z,20.44
2022-09-23T09:07:57.624Z,20.93
2022-09-23T09:10:59.636Z,21.54
2022-09-23T09:13:56.290Z,21.34
2022-09-23T09:16:59.569Z,22.02
2022-09-23T09:19:40.705Z,20.61
2022-09-23T09:25:32.128Z,21.21
2022-09-23T09:28:01.526Z,20.53
2022-09-23T09:30:28.893Z,21.03
2022-09-23T09:33:06.863Z,21.12
2022-09-23T09:36:17.748Z,20.85
2022-09-23T09:39:20.844Z,21.65
2022-09-23T09:42:06.552Z,21.45
2022-09-23T09:44:50.562Z,20.96
2022-09-23T09:47:17.447Z,22.78
2022-09-23T09:49:54.053Z,22.87
2022-09-23T09:52:29.839Z,22.39
2022-09-23T09:55:17.767Z,23.35
2022-09-23T09:58:12.640Z,23.93
2022-09-23T10:01:13.626Z,23.44
2022-09-23T10:04:16.662Z,23.92
2022-09-23T10:07:27.623Z,24.02
2022-09-23T10:10:37.618Z,23.63
2022-09-23T10:13:39.600Z,23.38
2022-09-23T10:16:20.233Z,22.46
2022-09-23T10:18:47.118Z,22.60
2022-09-23T10:21:16.573Z,23.57
2022-09-23T10:23:52.562Z,23.72
2022-09-23T10:26:32.590Z,23.78
2022-09-23T10:29:19.694Z,24.41
2022-09-23T10:31:46.732Z,23.22
2022-09-23T10:34:41.654Z,23.81
2022-09-23T10:37:35.955Z,23.63
2022-09-23T10:40:33.131Z,24.43
2022-09-23T10:43:21.955Z,24.74
2022-09-23T10:46:08.391Z,24.47
2022-09-23T10:48:58.173Z,24.09
2022-09-23T10:51:46.877Z,23.24
2022-09-23T10:54:35.265Z,23.54
2022-09-23T10:57:27.181Z,23.78
2022-09-23T11:00:21.635Z,22.93
2022-09-23T11:03:50.630Z,23.46
2022-09-23T11:07:13.670Z,23.40
2022-09-23T11:11:02.682Z,22.43
2022-09-23T11:14:05.216Z,23.36
2022-09-23T11:16:40.439Z,23.81
2022-09-23T11:19:17.304Z,23.90
2022-09-23T11:22:05.971Z,24.21
2022-09-23T11:24:58.279Z,23.91
2022-09-23T11:27:47.169Z,23.47
2022-09-23T11:30:34.705Z,24.34
2022-09-23T11:33:30.606Z,24.64
2022-09-23T11:36:02.175Z,23.70
2022-09-23T11:38:39.563Z,22.88
2022-09-23T11:41:25.926Z,22.80
2022-09-23T11:44:08.621Z,22.97
2022-09-23T11:46:43.029Z,23.20
2022-09-23T11:49:23.157Z,23.42
2022-09-23T11:52:02.684Z,23.29
2022-09-23T11:54:34.853Z,24.02
2022-09-23T11:57:05.641Z,24.17
2022-09-23T12:00:16.727Z,23.92
2022-09-23T12:03:12.524Z,23.16
2022-09-23T12:06:04.734Z,23.39
2022-09-23T12:09:10.990Z,23.77
2022-09-23T12:12:04.127Z,23.46
2022-09-23T12:15:19.731Z,22.82
2022-09-23T12:18:39.026Z,23.00
2022-09-23T12:21:45.718Z,23.61
2022-09-23T12:24:39.477Z,23.71
2022-09-23T12:27:12.047Z,22.41
2022-09-23T12:29:41.347Z,21.44
2022-09-23T12:32:18.324Z,22.18
2022-09-23T12:34:52.162Z,21.75
2022-09-23T12:37:47.721Z,23.01
2022-09-23T12:40:44.711Z,22.72
2022-09-23T12:43:33.067Z,22.46
2022-09-23T12:46:39.729Z,23.14
2022-09-23T12:49:29.432Z,23.12
2022-09-23T12:52:13.694Z,23.11
2022-09-23T12:55:04.771Z,22.97
2022-09-23T12:58:05.788Z,23.50
2022-09-23T13:01:36.045Z,23.24
2022-09-23T13:04:21.675Z,23.08
2022-09-23T13:07:22.766Z,22.60
2022-09-23T13:10:19.819Z,22.66
2022-09-23T13:13:02.419Z,22.97
2022-09-23T13:15:34.821Z,22.55
2022-09-23T13:18:33.821Z,22.07
2022-09-23T13:21:57.785Z,22.65
2022-09-23T13:24:41.203Z,22.36
2022-09-23T13:27:19.176Z,22.68
2022-09-23T13:30:04.165Z,23.28
2022-09-23T13:32:35.784Z,23.40
2022-09-23T13:35:05.822Z,23.28
2022-09-23T13:37:42.320Z,23.22
2022-09-23T13:40:24.419Z,23.18
2022-09-23T13:43:04.761Z,22.29
2022-09-23T13:45:53.866Z,21.93
2022-09-23T13:48:37.753Z,21.73
2022-09-23T13:51:29.922Z,21.91
2022-09-23T13:55:01.839Z,21.52
2022-09-23T13:58:27.889Z,22.67
2022-09-23T14:01:48.847Z,22.47
2022-09-23T14:04:29.501Z,21.78
2022-09-23T14:06:57.084Z,22.23
2022-09-23T14:09:27.535Z,22.52
2022-09-23T14:11:57.239Z,22.46
2022-09-23T14:14:44.898Z,22.59
2022-09-23T14:17:25.426Z,22.41
2022-09-23T14:20:12.894Z,21.32
2022-09-23T14:23:10.201Z,21.69
2022-09-23T14:25:38.803Z,21.59
2022-09-23T14:28:06.358Z,21.75
2022-09-23T14:30:54.824Z,22.15
2022-09-23T14:33:56.848Z,21.45
2022-09-23T14:37:03.640Z,21.48
2022-09-23T14:39:30.576Z,21.90
2022-09-23T14:41:57.561Z,21.73
2022-09-23T14:44:25.801Z,22.00
2022-09-23T14:46:57.089Z,22.02
2022-09-23T14:49:25.137Z,21.86
2022-09-23T14:52:14.982Z,22.15
2022-09-23T14:55:15.827Z,21.82
2022-09-23T14:58:28.871Z,21.56
2022-09-23T15:01:44.858Z,21.93
2022-09-23T15:04:42.869Z,21.28
2022-09-23T15:07:18.778Z,21.18
2022-09-23T15:10:05.919Z,21.38
2022-09-23T15:12:49.194Z,21.31
2022-09-23T15:15:17.392Z,22.06
2022-09-23T15:17:45.087Z,21.57
2022-09-23T15:20:36.874Z,21.82
2022-09-23T15:23:47.534Z,21.93
2022-09-23T15:26:17.680Z,22.17
2022-09-23T15:28:45.609Z,22.03
2022-09-23T15:31:17.932Z,21.77
2022-09-23T15:33:47.775Z,22.24
2022-09-23T15:36:37.857Z,21.79
2022-09-23T15:39:38.921Z,21.93
2022-09-23T15:42:19.441Z,21.92
2022-09-23T15:44:46.339Z,21.34
2022-09-23T15:47:18.973Z,21.65
2022-09-23T15:49:47.266Z,21.56
2022-09-23T15:52:33.913Z,21.36
2022-09-23T15:55:34.880Z,21.68
2022-09-23T15:58:35.891Z,21.65
2022-09-23T16:01:50.914Z,21.44
2022-09-23T16:04:55.187Z,21.62
2022-09-23T16:07:31.288Z,21.27
2022-09-23T16:09:58.904Z,21.32
2022-09-23T16:12:25.934Z,21.23
2022-09-23T16:14:53.037Z,21.00
2022-09-23T16:17:20.039Z,21.17
2022-09-23T16:19:47.064Z,20.97
2022-09-23T16:22:34.135Z,20.68
2022-09-23T16:25:14.532Z,21.17
2022-09-23T16:27:42.089Z,21.10
2022-09-23T16:30:10.302Z,20.78
2022-09-23T16:32:37.350Z,20.87
2022-09-23T16:35:06.013Z,21.21
2022-09-23T16:37:53.906Z,21.12
2022-09-23T16:40:35.500Z,20.76
2022-09-23T16:43:05.482Z,20.47
2022-09-23T16:45:32.644Z,20.84
2022-09-23T16:48:00.077Z,20.78
2022-09-23T16:50:48.936Z,20.49
2022-09-23T16:53:50.994Z,20.51
2022-09-23T16:56:32.093Z,20.65
2022-09-23T16:59:18.932Z,20.21
2022-09-23T17:02:41.990Z,20.01
2022-09-23T17:05:22.764Z,19.53
2022-09-23T17:08:10.974Z,19.53
2022-09-23T17:11:16.874Z,19.94
2022-09-23T17:14:01.111Z,19.79
2022-09-23T17:16:32.240Z,19.70
2022-09-23T17:19:00.238Z,18.82
2022-09-23T17:21:27.872Z,19.62
2022-09-23T17:23:56.180Z,19.66
2022-09-23T17:26:47.326Z,19.51
2022-09-23T17:29:30.679Z,19.11
2022-09-23T17:31:58.158Z,19.27
2022-09-23T17:34:25.273Z,19.33
2022-09-23T17:37:11.986Z,19.03
2022-09-23T17:39:57.100Z,19.13
2022-09-23T17:42:23.954Z,19.12
2022-09-23T17:44:51.301Z,19.14
2022-09-23T17:47:18.669Z,19.10
2022-09-23T17:49:47.151Z,19.00
2022-09-23T17:52:14.180Z,18.75
2022-09-23T17:54:42.723Z,18.38
2022-09-23T17:57:29.974Z,18.76
2022-09-23T18:03:28.139Z,18.51
2022-09-23T18:06:05.231Z,18.53
2022-09-23T18:08:35.781Z,18.67
2022-09-23T18:11:14.960Z,18.55
2022-09-23T18:13:42.874Z,18.48
2022-09-23T18:16:09.868Z,17.90
2022-09-23T18:18:57.015Z,18.63
2022-09-23T18:22:04.015Z,18.40
2022-09-23T18:24:47.587Z,18.73
2022-09-23T18:27:14.640Z,18.31
2022-09-23T18:29:41.597Z,18.39
2022-09-23T18:32:13.813Z,18.54
2022-09-23T18:34:41.232Z,18.14
2022-09-23T18:37:15.403Z,18.06
2022-09-23T18:39:43.605Z,17.77
2022-09-23T18:42:11.328Z,18.36
2022-09-23T18:44:38.482Z,18.37
2022-09-23T18:47:28.840Z,18.18
2022-09-23T18:53:16.110Z,17.58
2022-09-23T18:59:03.013Z,17.37
2022-09-23T19:02:06.167Z,18.19
2022-09-23T19:04:46.549Z,18.03
2022-09-23T19:07:34.056Z,17.65
2022-09-23T19:10:14.624Z,17.95
2022-09-23T19:12:41.510Z,18.02
2022-09-23T19:15:09.358Z,17.78
2022-09-23T19:17:36.423Z,17.93
2022-09-23T19:20:23.156Z,17.92
2022-09-23T19:23:03.569Z,17.78
2022-09-23T19:25:51.027Z,17.68
2022-09-23T19:28:53.024Z,18.02
2022-09-23T19:31:54.042Z,17.85
2022-09-23T19:34:35.677Z,17.92
2022-09-23T19:37:04.431Z,18.13
2022-09-23T19:39:31.950Z,17.46
2022-09-23T19:41:59.121Z,18.01
2022-09-23T19:44:46.050Z,17.63
2022-09-23T19:47:28.172Z,17.64
2022-09-23T19:49:55.363Z,17.33
2022-09-23T19:52:22.953Z,18.01
2022-09-23T19:54:49.988Z,17.56
2022-09-23T19:57:17.025Z,17.92
2022-09-23T20:00:04.088Z,17.93
2022-09-23T20:03:08.074Z,17.50
2022-09-23T20:05:57.850Z,17.81
2022-09-23T20:08:27.292Z,17.45
2022-09-23T20:10:56.977Z,17.28
2022-09-23T20:13:29.264Z,16.03
2022-09-23T20:15:58.123Z,16.51
2022-09-23T20:18:46.245Z,16.60
2022-09-23T20:21:47.155Z,17.15
2022-09-23T20:24:46.331Z,17.49
2022-09-23T20:27:13.308Z,17.40
2022-09-23T20:30:00.230Z,16.78
2022-09-23T20:33:01.132Z,16.90
2022-09-23T20:35:44.327Z,17.25
2022-09-23T20:38:11.491Z,17.34
2022-09-23T20:40:38.858Z,17.20
2022-09-23T20:43:05.985Z,17.40
2022-09-23T20:45:53.115Z,16.42
2022-09-23T20:48:33.928Z,17.15
2022-09-23T20:51:05.830Z,17.49
2022-09-23T20:53:53.204Z,17.06
2022-09-23T20:56:33.763Z,17.37
2022-09-23T20:59:21.097Z,17.18
2022-09-23T21:02:23.118Z,17.45
2022-09-23T21:05:03.862Z,17.68
2022-09-23T21:07:51.146Z,17.88
2022-09-23T21:10:31.810Z,17.71
2022-09-23T21:12:59.188Z,17.55
2022-09-23T21:15:27.836Z,17.40
2022-09-23T21:17:54.791Z,17.24
2022-09-23T21:20:42.187Z,17.68
2022-09-23T21:23:43.055Z,17.39
2022-09-23T21:26:17.520Z,17.73
2022-09-23T21:28:49.667Z,17.95
2022-09-23T21:31:26.033Z,17.83
2022-09-23T21:33:54.050Z,17.20
2022-09-23T21:37:07.105Z,17.12
2022-09-23T21:39:38.195Z,17.55
2022-09-23T21:42:06.202Z,17.34
2022-09-23T21:44:34.531Z,17.58
2022-09-23T21:47:01.542Z,17.16
2022-09-23T21:49:50.954Z,17.61
2022-09-23T21:52:31.843Z,18.02
2022-09-23T21:54:58.892Z,17.57
2022-09-23T21:57:26.023Z,17.83
2022-09-23T22:00:13.146Z,17.82
2022-09-23T22:03:15.118Z,17.83
2022-09-23T22:06:04.836Z,18.06
2022-09-23T22:08:37.136Z,18.03
2022-09-23T22:11:32.648Z,17.43
2022-09-23T22:14:02.197Z,17.69
2022-09-23T22:16:30.047Z,18.01
2022-09-23T22:19:17.207Z,18.12
2022-09-23T22:22:13.266Z,17.44
2022-09-23T22:24:41.306Z,17.73
2022-09-23T22:27:09.895Z,18.03
2022-09-23T22:29:55.945Z,17.80
2022-09-23T22:32:34.818Z,17.91
2022-09-23T22:35:02.036Z,17.94
2022-09-23T22:37:50.186Z,17.90
2022-09-23T22:40:30.957Z,18.05
2022-09-23T22:42:58.072Z,17.93
2022-09-23T22:45:25.144Z,17.33
2022-09-23T22:47:53.354Z,17.88
2022-09-23T22:50:20.363Z,17.26
2022-09-23T22:53:08.168Z,17.93
2022-09-23T22:56:13.191Z,17.44
2022-09-23T22:59:18.175Z,17.83
2022-09-23T23:02:19.225Z,17.77
2022-09-23T23:05:11.849Z,17.71
2022-09-23T23:08:01.359Z,17.79
2022-09-23T23:10:42.409Z,17.81
2022-09-23T23:13:10.954Z,17.78
2022-09-23T23:15:58.375Z,17.35
2022-09-23T23:18:40.884Z,17.74
2022-09-23T23:21:30.199Z,17.51
2022-09-23T23:24:15.872Z,17.77
2022-09-23T23:26:43.058Z,17.77
2022-09-23T23:29:11.908Z,17.63
2022-09-23T23:31:39.385Z,17.67
2022-09-23T23:34:10.771Z,17.43
2022-09-23T23:36:38.576Z,17.65
2022-09-23T23:39:05.719Z,17.13
2022-09-23T23:41:33.384Z,17.06
2022-09-23T23:44:01.350Z,17.18
2022-09-23T23:46:30.453Z,17.03
2022-09-23T23:49:18.168Z,16.91
2022-09-23T23:52:19.212Z,17.17
2022-09-23T23:54:59.971Z,16.95
2022-09-23T23:57:26.854Z,16.97
